createdAt,value
2022-08-26T00:00:25.804Z,21.76
2022-08-26T00:01:29.686Z,21.75
2022-08-26T00:02:25.820Z,21.76
2022-08-26T00:03:25.776Z,21.75
2022-08-26T00:04:26.156Z,21.74
2022-08-26T00:05:25.755Z,21.72
2022-08-26T00:06:25.745Z,21.67
2022-08-26T00:07:25.756Z,21.63
2022-08-26T00:08:25.726Z,21.61
2022-08-26T00:09:25.726Z,21.59
2022-08-26T00:10:25.834Z,21.56
2022-08-26T00:11:26.535Z,21.54
2022-08-26T00:12:34.360Z,21.51
2022-08-26T00:13:26.667Z,21.50
2022-08-26T00:14:30.821Z,21.46
2022-08-26T00:15:26.654Z,21.45
2022-08-26T00:16:25.734Z,21.45
2022-08-26T00:17:25.635Z,21.41
2022-08-26T00:18:25.945Z,21.41
2022-08-26T00:19:25.622Z,21.44
2022-08-26T00:20:25.617Z,21.41
2022-08-26T00:21:25.811Z,21.41
2022-08-26T00:22:25.567Z,21.41
2022-08-26T00:23:25.554Z,21.39
2022-08-26T00:24:25.593Z,21.38
2022-08-26T00:25:25.549Z,21.36
2022-08-26T00:26:28.501Z,21.35
2022-08-26T00:27:25.552Z,21.34
2022-08-26T00:28:25.501Z,21.35
2022-08-26T00:29:25.510Z,21.34
2022-08-26T00:30:26.516Z,21.34
2022-08-26T00:31:25.585Z,21.36
2022-08-26T00:32:26.413Z,21.38
2022-08-26T00:33:25.446Z,21.35
2022-08-26T00:34:25.433Z,21.38
2022-08-26T00:35:25.441Z,21.36
2022-08-26T00:36:25.407Z,21.36
2022-08-26T00:37:25.439Z,21.36
2022-08-26T00:38:25.383Z,21.36
2022-08-26T00:39:25.375Z,21.35
2022-08-26T00:40:25.540Z,21.34
2022-08-26T00:41:25.354Z,21.30
2022-08-26T00:42:25.357Z,21.27
2022-08-26T00:43:25.336Z,21.26
2022-08-26T00:44:25.316Z,21.24
2022-08-26T00:45:25.366Z,21.24
2022-08-26T00:46:25.320Z,21.23
2022-08-26T00:47:25.309Z,21.23
2022-08-26T00:48:26.301Z,21.20
2022-08-26T00:49:26.277Z,21.20
2022-08-26T00:50:25.275Z,21.19
2022-08-26T00:51:29.706Z,21.19
2022-08-26T00:52:25.240Z,21.17
2022-08-26T00:53:26.066Z,21.17
2022-08-26T00:54:26.921Z,21.16
2022-08-26T00:55:25.233Z,21.14
2022-08-26T00:56:26.198Z,21.17
2022-08-26T00:57:25.186Z,21.16
2022-08-26T00:58:25.173Z,21.13
2022-08-26T00:59:25.205Z,21.13
2022-08-26T01:00:25.157Z,21.11
2022-08-26T01:01:25.252Z,21.09
2022-08-26T01:02:25.152Z,21.06
2022-08-26T01:03:25.119Z,21.04
2022-08-26T01:04:26.155Z,21.02
2022-08-26T01:05:25.118Z,20.99
2022-08-26T01:06:25.076Z,20.96
2022-08-26T01:07:25.067Z,20.91
2022-08-26T01:08:25.055Z,20.90
2022-08-26T01:09:25.048Z,20.89
2022-08-26T01:10:25.094Z,20.84
2022-08-26T01:11:25.051Z,20.81
2022-08-26T01:12:25.069Z,20.81
2022-08-26T01:13:25.000Z,20.80
2022-08-26T01:14:24.995Z,20.77
2022-08-26T01:15:24.998Z,20.74
2022-08-26T01:16:25.056Z,20.69
2022-08-26T01:17:24.952Z,20.66
2022-08-26T01:18:24.967Z,20.62
2022-08-26T01:19:24.941Z,20.59
2022-08-26T01:20:24.965Z,20.56
2022-08-26T01:21:24.964Z,20.53
2022-08-26T01:22:28.108Z,20.50
2022-08-26T01:23:24.940Z,20.49
2022-08-26T01:24:24.872Z,20.49
2022-08-26T01:25:24.885Z,20.49
2022-08-26T01:26:24.865Z,20.51
2022-08-26T01:27:25.587Z,20.51
2022-08-26T01:28:24.834Z,20.56
2022-08-26T01:29:24.841Z,20.58
2022-08-26T01:30:24.808Z,20.61
2022-08-26T01:31:24.946Z,20.66
2022-08-26T01:32:24.790Z,20.68
2022-08-26T01:33:24.784Z,20.71
2022-08-26T01:34:24.808Z,20.74
2022-08-26T01:35:24.757Z,20.76
2022-08-26T01:36:24.760Z,20.76
2022-08-26T01:37:24.729Z,20.74
2022-08-26T01:38:24.709Z,20.72
2022-08-26T01:39:24.710Z,20.72
2022-08-26T01:40:24.750Z,20.72
2022-08-26T01:41:27.142Z,20.71
2022-08-26T01:42:24.693Z,20.69
2022-08-26T01:43:24.660Z,20.68
2022-08-26T01:44:24.652Z,20.66
2022-08-26T01:45:24.729Z,20.66
2022-08-26T01:46:24.655Z,20.66
2022-08-26T01:47:24.651Z,20.65
2022-08-26T01:48:24.612Z,20.65
2022-08-26T01:49:24.607Z,20.62
2022-08-26T01:50:27.819Z,20.65
2022-08-26T01:51:25.588Z,20.64
2022-08-26T01:52:24.606Z,20.61
2022-08-26T01:53:24.565Z,20.62
2022-08-26T01:54:24.544Z,20.61
2022-08-26T01:55:32.281Z,20.58
2022-08-26T01:56:25.554Z,20.58
2022-08-26T01:57:25.513Z,20.56
2022-08-26T01:58:24.507Z,20.53
2022-08-26T01:59:24.484Z,20.51
2022-08-26T02:00:24.482Z,20.50
2022-08-26T02:01:24.504Z,20.49
2022-08-26T02:02:24.667Z,20.47
2022-08-26T02:03:24.545Z,20.43
2022-08-26T02:04:24.521Z,20.41
2022-08-26T02:05:24.463Z,20.38
2022-08-26T02:06:24.409Z,20.33
2022-08-26T02:07:26.639Z,20.30
2022-08-26T02:08:24.707Z,20.25
2022-08-26T02:09:24.387Z,20.21
2022-08-26T02:10:24.366Z,20.18
2022-08-26T02:11:24.392Z,20.15
2022-08-26T02:12:24.335Z,20.15
2022-08-26T02:13:24.400Z,20.16
2022-08-26T02:14:24.344Z,20.21
2022-08-26T02:15:24.308Z,20.21
2022-08-26T02:16:24.385Z,20.21
2022-08-26T02:17:25.260Z,20.21
2022-08-26T02:18:24.310Z,20.23
2022-08-26T02:19:24.267Z,20.23
2022-08-26T02:20:26.439Z,20.21
2022-08-26T02:21:24.998Z,20.18
2022-08-26T02:22:24.696Z,20.16
2022-08-26T02:23:24.474Z,20.13
2022-08-26T02:24:24.210Z,20.15
2022-08-26T02:25:26.153Z,20.13
2022-08-26T02:26:24.189Z,20.13
2022-08-26T02:27:24.188Z,20.13
2022-08-26T02:28:26.725Z,20.12
2022-08-26T02:29:24.161Z,20.12
2022-08-26T02:30:24.167Z,20.12
2022-08-26T02:31:24.200Z,20.09
2022-08-26T02:32:24.127Z,20.10
2022-08-26T02:33:24.132Z,20.09
2022-08-26T02:34:24.103Z,20.08
2022-08-26T02:35:24.120Z,20.06
2022-08-26T02:36:24.084Z,20.06
2022-08-26T02:37:25.060Z,20.08
2022-08-26T02:38:24.084Z,20.06
2022-08-26T02:39:24.061Z,20.06
2022-08-26T02:40:25.053Z,20.05
2022-08-26T02:41:24.022Z,20.06
2022-08-26T02:42:24.016Z,20.03
2022-08-26T02:43:32.839Z,20.03
2022-08-26T02:44:25.006Z,19.98
2022-08-26T02:45:23.977Z,19.97
2022-08-26T02:46:29.877Z,19.97
2022-08-26T02:47:25.920Z,19.93
2022-08-26T02:48:23.973Z,19.91
2022-08-26T02:49:23.946Z,19.88
2022-08-26T02:50:23.939Z,19.84
2022-08-26T02:51:23.911Z,19.80
2022-08-26T02:52:23.908Z,19.78
2022-08-26T02:53:25.484Z,19.76
2022-08-26T02:54:23.899Z,19.78
2022-08-26T02:55:24.815Z,19.73
2022-08-26T02:56:23.899Z,19.73
2022-08-26T02:57:23.841Z,19.75
2022-08-26T02:58:23.843Z,19.73
2022-08-26T02:59:24.456Z,19.70
2022-08-26T03:00:23.914Z,19.70
2022-08-26T03:01:23.892Z,19.68
2022-08-26T03:02:23.842Z,19.66
2022-08-26T03:03:23.894Z,19.68
2022-08-26T03:04:23.765Z,19.68
2022-08-26T03:05:24.058Z,19.68
2022-08-26T03:06:23.749Z,19.68
2022-08-26T03:07:23.755Z,19.69
2022-08-26T03:08:23.735Z,19.69
2022-08-26T03:09:23.729Z,19.70
2022-08-26T03:10:23.716Z,19.70
2022-08-26T03:11:23.723Z,19.69
2022-08-26T03:12:23.741Z,19.68
2022-08-26T03:13:23.675Z,19.70
2022-08-26T03:14:23.676Z,19.70
2022-08-26T03:15:23.671Z,19.72
2022-08-26T03:16:23.689Z,19.72
2022-08-26T03:17:23.646Z,19.70
2022-08-26T03:18:23.610Z,19.70
2022-08-26T03:19:23.601Z,19.70
2022-08-26T03:20:23.581Z,19.72
2022-08-26T03:21:24.239Z,19.73
2022-08-26T03:22:23.590Z,19.73
2022-08-26T03:23:23.581Z,19.73
2022-08-26T03:24:23.582Z,19.75
2022-08-26T03:25:23.581Z,19.75
2022-08-26T03:26:23.538Z,19.79
2022-08-26T03:27:23.560Z,19.79
2022-08-26T03:28:23.563Z,19.78
2022-08-26T03:29:23.496Z,19.78
2022-08-26T03:30:23.489Z,19.73
2022-08-26T03:31:24.596Z,19.72
2022-08-26T03:32:23.474Z,19.70
2022-08-26T03:33:23.444Z,19.70
2022-08-26T03:34:23.436Z,19.69
2022-08-26T03:35:23.421Z,19.66
2022-08-26T03:36:23.433Z,19.68
2022-08-26T03:37:23.403Z,19.65
2022-08-26T03:38:23.438Z,19.61
2022-08-26T03:39:23.368Z,19.60
2022-08-26T03:40:23.413Z,19.58
2022-08-26T03:41:23.349Z,19.58
2022-08-26T03:42:23.382Z,19.58
2022-08-26T03:43:23.329Z,19.55
2022-08-26T03:44:23.331Z,19.50
2022-08-26T03:45:23.319Z,19.46
2022-08-26T03:46:23.345Z,19.39
2022-08-26T03:47:23.298Z,19.35
2022-08-26T03:48:23.286Z,19.29
2022-08-26T03:49:23.280Z,19.25
2022-08-26T03:50:24.377Z,19.23
2022-08-26T03:51:23.250Z,19.21
2022-08-26T03:52:23.234Z,19.20
2022-08-26T03:53:23.235Z,19.17
2022-08-26T03:54:23.203Z,19.17
2022-08-26T03:55:23.728Z,19.17
2022-08-26T03:56:23.192Z,19.14
2022-08-26T03:57:23.330Z,19.14
2022-08-26T03:58:23.174Z,19.13
2022-08-26T03:59:23.190Z,19.11
2022-08-26T04:00:23.166Z,19.14
2022-08-26T04:01:23.199Z,19.15
2022-08-26T04:02:23.170Z,19.15
2022-08-26T04:03:23.161Z,19.14
2022-08-26T04:04:24.518Z,19.13
2022-08-26T04:05:23.098Z,19.10
2022-08-26T04:06:23.091Z,19.08
2022-08-26T04:07:23.069Z,19.05
2022-08-26T04:08:23.076Z,19.01
2022-08-26T04:09:23.094Z,18.98
2022-08-26T04:10:23.031Z,18.97
2022-08-26T04:11:24.031Z,18.98
2022-08-26T04:12:23.012Z,18.97
2022-08-26T04:13:23.023Z,18.97
2022-08-26T04:14:23.008Z,18.97
2022-08-26T04:15:22.973Z,18.95
2022-08-26T04:16:23.026Z,18.95
2022-08-26T04:17:24.968Z,18.95
2022-08-26T04:18:22.943Z,18.97
2022-08-26T04:19:22.953Z,18.94
2022-08-26T04:20:23.873Z,18.95
2022-08-26T04:21:22.914Z,18.97
2022-08-26T04:22:24.847Z,18.98
2022-08-26T04:23:22.895Z,18.98
2022-08-26T04:24:22.876Z,18.97
2022-08-26T04:25:24.116Z,18.98
2022-08-26T04:26:22.859Z,18.98
2022-08-26T04:27:22.848Z,18.99
2022-08-26T04:28:22.858Z,18.99
2022-08-26T04:29:22.838Z,19.02
2022-08-26T04:30:22.820Z,19.05
2022-08-26T04:31:22.861Z,19.06
2022-08-26T04:32:22.823Z,19.06
2022-08-26T04:33:32.534Z,19.08
2022-08-26T04:34:23.799Z,19.08
2022-08-26T04:35:25.845Z,19.08
2022-08-26T04:36:22.775Z,19.02
2022-08-26T04:37:22.743Z,18.98
2022-08-26T04:38:22.760Z,18.92
2022-08-26T04:39:22.740Z,18.87
2022-08-26T04:40:22.754Z,18.82
2022-08-26T04:41:22.713Z,18.80
2022-08-26T04:42:26.128Z,18.80
2022-08-26T04:43:22.716Z,18.82
2022-08-26T04:44:22.674Z,18.80
2022-08-26T04:45:23.032Z,18.83
2022-08-26T04:46:22.715Z,18.84
2022-08-26T04:47:22.623Z,18.90
2022-08-26T04:48:22.634Z,18.94
2022-08-26T04:49:22.609Z,18.99
2022-08-26T04:50:22.604Z,19.02
2022-08-26T04:51:22.594Z,19.08
2022-08-26T04:52:22.567Z,19.11
2022-08-26T04:53:22.591Z,19.14
2022-08-26T04:54:22.539Z,19.18
2022-08-26T04:55:37.262Z,19.21
2022-08-26T04:56:23.521Z,19.25
2022-08-26T04:57:22.515Z,19.29
2022-08-26T04:58:22.509Z,19.33
2022-08-26T04:59:22.490Z,19.38
2022-08-26T05:00:22.480Z,19.42
2022-08-26T05:01:22.528Z,19.48
2022-08-26T05:02:23.434Z,19.51
2022-08-26T05:03:22.440Z,19.55
2022-08-26T05:04:22.462Z,19.57
2022-08-26T05:05:22.464Z,19.61
2022-08-26T05:06:22.417Z,19.65
2022-08-26T05:07:22.410Z,19.69
2022-08-26T05:08:22.394Z,19.72
2022-08-26T05:09:23.351Z,19.73
2022-08-26T05:10:22.375Z,19.75
2022-08-26T05:11:22.362Z,19.76
2022-08-26T05:12:22.362Z,19.80
2022-08-26T05:13:22.340Z,19.80
2022-08-26T05:14:22.387Z,19.79
2022-08-26T05:15:22.316Z,19.76
2022-08-26T05:16:22.358Z,19.75
2022-08-26T05:17:22.287Z,19.75
2022-08-26T05:18:22.805Z,19.76
2022-08-26T05:19:22.267Z,19.76
2022-08-26T05:20:26.071Z,19.76
2022-08-26T05:21:22.268Z,19.75
2022-08-26T05:22:22.294Z,19.73
2022-08-26T05:23:22.233Z,19.70
2022-08-26T05:24:22.237Z,19.72
2022-08-26T05:25:22.229Z,19.70
2022-08-26T05:26:22.966Z,19.68
2022-08-26T05:27:22.192Z,19.63
2022-08-26T05:28:22.166Z,19.57
2022-08-26T05:29:22.151Z,19.55
2022-08-26T05:30:22.167Z,19.58
2022-08-26T05:31:22.159Z,19.57
2022-08-26T05:32:22.159Z,19.57
2022-08-26T05:33:22.111Z,19.54
2022-08-26T05:34:22.117Z,19.54
2022-08-26T05:35:22.106Z,19.55
2022-08-26T05:36:22.093Z,19.48
2022-08-26T05:37:22.076Z,19.40
2022-08-26T05:38:22.070Z,19.42
2022-08-26T05:39:22.045Z,19.42
2022-08-26T05:40:22.121Z,19.47
2022-08-26T05:41:22.026Z,19.54
2022-08-26T05:42:22.048Z,19.60
2022-08-26T05:43:22.018Z,19.65
2022-08-26T05:44:22.430Z,19.69
2022-08-26T05:45:21.978Z,19.73
2022-08-26T05:46:21.990Z,19.78
2022-08-26T05:47:21.950Z,19.80
2022-08-26T05:48:24.346Z,19.84
2022-08-26T05:49:26.205Z,19.90
2022-08-26T05:50:21.935Z,19.91
2022-08-26T05:51:25.848Z,19.87
2022-08-26T05:52:21.894Z,19.91
2022-08-26T05:53:21.914Z,19.97
2022-08-26T05:54:22.565Z,20.06
2022-08-26T05:55:21.876Z,20.12
2022-08-26T05:56:21.857Z,20.16
2022-08-26T05:57:23.081Z,20.24
2022-08-26T05:58:21.839Z,20.31
2022-08-26T05:59:24.669Z,20.39
2022-08-26T06:00:21.817Z,20.47
2022-08-26T06:01:21.899Z,20.51
2022-08-26T06:02:21.843Z,20.53
2022-08-26T06:03:21.786Z,20.54
2022-08-26T06:04:21.822Z,20.51
2022-08-26T06:05:21.773Z,20.46
2022-08-26T06:06:27.342Z,20.46
2022-08-26T06:07:22.734Z,20.46
2022-08-26T06:08:21.743Z,20.47
2022-08-26T06:09:21.727Z,20.49
2022-08-26T06:10:32.098Z,20.54
2022-08-26T06:11:22.751Z,20.62
2022-08-26T06:12:21.683Z,20.64
2022-08-26T06:13:21.702Z,20.64
2022-08-26T06:14:21.668Z,20.66
2022-08-26T06:15:21.657Z,20.72
2022-08-26T06:16:21.731Z,20.80
2022-08-26T06:17:21.630Z,20.84
2022-08-26T06:18:21.609Z,20.91
2022-08-26T06:19:21.616Z,20.96
2022-08-26T06:20:21.603Z,21.02
2022-08-26T06:21:21.594Z,21.04
2022-08-26T06:22:23.471Z,21.09
2022-08-26T06:23:21.553Z,21.13
2022-08-26T06:24:21.567Z,21.20
2022-08-26T06:25:22.554Z,21.26
2022-08-26T06:26:21.548Z,21.30
2022-08-26T06:27:21.520Z,21.36
2022-08-26T06:28:21.514Z,21.41
2022-08-26T06:29:24.028Z,21.48
2022-08-26T06:30:21.536Z,21.53
2022-08-26T06:31:21.524Z,21.54
2022-08-26T06:32:21.515Z,21.57
2022-08-26T06:33:21.458Z,21.59
2022-08-26T06:34:21.475Z,21.57
2022-08-26T06:35:21.418Z,21.56
2022-08-26T06:36:21.438Z,21.57
2022-08-26T06:37:21.424Z,21.59
2022-08-26T06:38:21.397Z,21.63
2022-08-26T06:39:21.385Z,21.71
2022-08-26T06:40:21.470Z,21.79
2022-08-26T06:41:21.376Z,21.81
2022-08-26T06:42:21.351Z,21.92
2022-08-26T06:43:21.331Z,22.02
2022-08-26T06:44:21.378Z,22.13
2022-08-26T06:45:21.315Z,22.23
2022-08-26T06:46:21.341Z,22.31
2022-08-26T06:47:21.324Z,22.34
2022-08-26T06:48:21.288Z,22.38
2022-08-26T06:49:26.926Z,22.44
2022-08-26T06:50:22.279Z,22.50
2022-08-26T06:51:23.683Z,22.50
2022-08-26T06:52:24.395Z,22.50
2022-08-26T06:53:21.229Z,22.50
2022-08-26T06:54:21.240Z,22.52
2022-08-26T06:55:21.238Z,22.54
2022-08-26T06:56:22.210Z,22.56
2022-08-26T06:57:21.271Z,22.59
2022-08-26T06:58:21.169Z,22.57
2022-08-26T06:59:21.208Z,22.57
2022-08-26T07:00:21.171Z,22.54
2022-08-26T07:01:21.233Z,22.56
2022-08-26T07:02:21.141Z,22.59
2022-08-26T07:03:22.059Z,22.65
2022-08-26T07:04:22.341Z,22.68
2022-08-26T07:05:21.109Z,22.74
2022-08-26T07:06:21.082Z,22.80
2022-08-26T07:07:21.611Z,22.78
2022-08-26T07:08:21.169Z,22.82
2022-08-26T07:09:21.131Z,22.87
2022-08-26T07:10:21.058Z,22.92
2022-08-26T07:11:21.024Z,22.92
2022-08-26T07:12:21.026Z,22.94
2022-08-26T07:13:30.573Z,22.97
2022-08-26T07:14:22.093Z,22.97
2022-08-26T07:15:27.221Z,22.97
2022-08-26T07:16:22.049Z,22.99
2022-08-26T07:17:20.959Z,22.99
2022-08-26T07:18:22.944Z,23.02
2022-08-26T07:19:30.632Z,23.07
2022-08-26T07:20:22.015Z,23.12
2022-08-26T07:21:20.938Z,23.15
2022-08-26T07:22:20.909Z,23.20
2022-08-26T07:23:20.889Z,23.26
2022-08-26T07:24:20.892Z,23.29
2022-08-26T07:25:20.878Z,23.38
2022-08-26T07:26:20.852Z,23.45
2022-08-26T07:27:20.882Z,23.49
2022-08-26T07:28:20.842Z,23.52
2022-08-26T07:29:20.855Z,23.55
2022-08-26T07:30:20.841Z,23.53
2022-08-26T07:31:20.913Z,23.53
2022-08-26T07:32:20.794Z,23.57
2022-08-26T07:33:20.793Z,23.57
2022-08-26T07:34:20.772Z,23.57
2022-08-26T07:35:20.807Z,23.61
2022-08-26T07:36:20.745Z,23.65
2022-08-26T07:37:20.770Z,23.68
2022-08-26T07:38:20.732Z,23.75
2022-08-26T07:39:20.703Z,23.79
2022-08-26T07:40:20.833Z,23.85
2022-08-26T07:41:20.775Z,23.85
2022-08-26T07:42:20.697Z,23.86
2022-08-26T07:43:20.677Z,23.90
2022-08-26T07:44:20.653Z,23.95
2022-08-26T07:45:20.650Z,24.02
2022-08-26T07:46:27.044Z,24.07
2022-08-26T07:47:24.713Z,24.16
2022-08-26T07:48:21.389Z,24.19
2022-08-26T07:49:20.724Z,24.19
2022-08-26T07:50:20.642Z,24.20
2022-08-26T07:51:20.582Z,24.17
2022-08-26T07:52:25.309Z,24.17
2022-08-26T07:53:21.573Z,24.17
2022-08-26T07:54:20.567Z,24.20
2022-08-26T07:55:21.554Z,24.23
2022-08-26T07:56:20.540Z,24.23
2022-08-26T07:57:20.519Z,24.31
2022-08-26T07:58:20.527Z,24.37
2022-08-26T07:59:20.487Z,24.41
2022-08-26T08:00:20.518Z,24.49
2022-08-26T08:01:20.563Z,24.56
2022-08-26T08:02:20.472Z,24.63
2022-08-26T08:03:20.457Z,24.69
2022-08-26T08:04:26.208Z,24.73
2022-08-26T08:05:21.436Z,24.79
2022-08-26T08:06:20.414Z,24.82
2022-08-26T08:07:20.431Z,24.90
2022-08-26T08:08:27.628Z,24.94
2022-08-26T08:09:22.315Z,25.00
2022-08-26T08:10:20.816Z,25.05
2022-08-26T08:11:20.362Z,25.09
2022-08-26T08:12:20.381Z,25.12
2022-08-26T08:13:20.364Z,25.16
2022-08-26T08:14:22.013Z,25.19
2022-08-26T08:15:20.312Z,25.10
2022-08-26T08:16:20.313Z,25.06
2022-08-26T08:17:20.319Z,25.02
2022-08-26T08:18:20.395Z,25.05
2022-08-26T08:19:20.274Z,25.06
2022-08-26T08:20:20.296Z,25.13
2022-08-26T08:21:22.002Z,25.19
2022-08-26T08:22:20.239Z,25.22
2022-08-26T08:23:20.257Z,25.28
2022-08-26T08:24:20.239Z,25.35
2022-08-26T08:25:20.216Z,25.39
2022-08-26T08:26:20.197Z,25.46
2022-08-26T08:27:23.705Z,25.52
2022-08-26T08:28:20.187Z,25.59
2022-08-26T08:29:20.175Z,25.62
2022-08-26T08:30:22.690Z,25.68
2022-08-26T08:31:38.717Z,25.69
2022-08-26T08:32:21.141Z,25.72
2022-08-26T08:33:20.159Z,25.77
2022-08-26T08:34:21.589Z,25.80
2022-08-26T08:35:20.102Z,25.82
2022-08-26T08:36:20.536Z,25.77
2022-08-26T08:37:20.084Z,25.74
2022-08-26T08:38:22.032Z,25.77
2022-08-26T08:39:20.074Z,25.79
2022-08-26T08:40:20.143Z,25.71
2022-08-26T08:41:20.039Z,25.74
2022-08-26T08:42:20.046Z,25.83
2022-08-26T08:43:20.029Z,25.83
2022-08-26T08:44:20.137Z,25.80
2022-08-26T08:45:19.999Z,25.77
2022-08-26T08:46:20.021Z,25.71
2022-08-26T08:47:20.691Z,25.64
2022-08-26T08:48:19.962Z,25.64
2022-08-26T08:49:19.946Z,25.61
2022-08-26T08:50:19.963Z,25.62
2022-08-26T08:51:19.940Z,25.62
2022-08-26T08:52:19.914Z,25.62
2022-08-26T08:53:19.908Z,25.65
2022-08-26T08:54:19.907Z,25.62
2022-08-26T08:55:19.893Z,25.64
2022-08-26T08:56:19.883Z,25.62
2022-08-26T08:57:19.880Z,25.62
2022-08-26T08:58:19.858Z,25.61
2022-08-26T08:59:19.843Z,25.61
2022-08-26T09:00:19.858Z,25.62
2022-08-26T09:01:20.841Z,25.64
2022-08-26T09:02:19.865Z,25.65
2022-08-26T09:03:19.809Z,25.67
2022-08-26T09:04:19.787Z,25.67
2022-08-26T09:05:19.777Z,25.65
2022-08-26T09:06:19.779Z,25.67
2022-08-26T09:07:19.771Z,25.72
2022-08-26T09:08:20.030Z,25.74
2022-08-26T09:09:19.755Z,25.77
2022-08-26T09:10:19.720Z,25.79
2022-08-26T09:11:19.718Z,25.79
2022-08-26T09:12:19.721Z,25.82
2022-08-26T09:13:26.383Z,25.86
2022-08-26T09:14:20.692Z,25.90
2022-08-26T09:15:19.682Z,25.91
2022-08-26T09:16:20.456Z,26.01
2022-08-26T09:17:19.646Z,26.05
2022-08-26T09:18:19.654Z,26.15
2022-08-26T09:19:19.737Z,26.18
2022-08-26T09:20:19.621Z,26.22
2022-08-26T09:21:19.602Z,26.29
2022-08-26T09:22:19.637Z,26.35
2022-08-26T09:23:19.576Z,26.39
2022-08-26T09:24:19.566Z,26.40
2022-08-26T09:25:19.593Z,26.40
2022-08-26T09:26:19.548Z,26.46
2022-08-26T09:27:19.554Z,26.49
2022-08-26T09:28:19.528Z,26.52
2022-08-26T09:30:19.509Z,26.55
2022-08-26T09:31:19.575Z,26.58
2022-08-26T09:32:19.481Z,26.65
2022-08-26T09:33:19.494Z,26.69
2022-08-26T09:34:19.455Z,26.72
2022-08-26T09:35:19.451Z,26.76
2022-08-26T09:36:19.454Z,26.81
2022-08-26T09:37:19.449Z,26.86
2022-08-26T09:38:19.407Z,26.87
2022-08-26T09:39:19.400Z,26.91
2022-08-26T09:40:19.516Z,26.96
2022-08-26T09:41:19.403Z,27.02
2022-08-26T09:42:19.364Z,27.06
2022-08-26T09:43:22.794Z,27.14
2022-08-26T09:44:19.354Z,27.19
2022-08-26T09:45:19.372Z,27.23
2022-08-26T09:46:19.473Z,27.28
2022-08-26T09:47:19.331Z,27.29
2022-08-26T09:48:19.310Z,27.31
2022-08-26T09:49:19.298Z,27.33
2022-08-26T09:50:19.287Z,27.33
2022-08-26T09:51:19.281Z,27.33
2022-08-26T09:52:19.259Z,27.28
2022-08-26T09:53:20.984Z,27.20
2022-08-26T09:54:20.797Z,27.11
2022-08-26T09:55:19.263Z,27.11
2022-08-26T09:56:19.239Z,27.11
2022-08-26T09:57:19.237Z,27.17
2022-08-26T09:58:19.221Z,27.26
2022-08-26T09:59:19.195Z,27.36
2022-08-26T10:00:19.174Z,27.46
2022-08-26T10:01:19.466Z,27.50
2022-08-26T10:02:19.166Z,27.54
2022-08-26T10:03:19.160Z,27.58
2022-08-26T10:04:19.214Z,27.64
2022-08-26T10:05:19.118Z,27.71
2022-08-26T10:06:20.935Z,27.73
2022-08-26T10:07:19.156Z,27.71
2022-08-26T10:08:19.089Z,27.74
2022-08-26T10:09:19.086Z,27.74
2022-08-26T10:10:19.090Z,27.79
2022-08-26T10:11:19.061Z,27.84
2022-08-26T10:12:19.069Z,27.85
2022-08-26T10:13:19.031Z,27.86
2022-08-26T10:14:19.028Z,27.89
2022-08-26T10:15:19.013Z,27.92
2022-08-26T10:16:19.092Z,27.92
2022-08-26T10:17:18.996Z,27.99
2022-08-26T10:18:18.985Z,28.03
2022-08-26T10:19:18.972Z,28.04
2022-08-26T10:20:23.419Z,28.09
2022-08-26T10:21:19.954Z,28.13
2022-08-26T10:22:18.937Z,28.14
2022-08-26T10:23:18.979Z,28.16
2022-08-26T10:24:18.936Z,28.14
2022-08-26T10:25:18.930Z,28.19
2022-08-26T10:26:18.900Z,28.23
2022-08-26T10:27:18.887Z,28.25
2022-08-26T10:28:18.870Z,28.25
2022-08-26T10:29:18.896Z,28.26
2022-08-26T10:30:18.866Z,28.26
2022-08-26T10:31:18.859Z,28.29
2022-08-26T10:32:18.907Z,28.22
2022-08-26T10:33:18.831Z,28.29
2022-08-26T10:34:18.834Z,28.40
2022-08-26T10:35:18.806Z,28.51
2022-08-26T10:36:20.221Z,28.54
2022-08-26T10:37:18.792Z,28.59
2022-08-26T10:38:18.774Z,28.59
2022-08-26T10:39:18.776Z,28.65
2022-08-26T10:40:18.812Z,28.63
2022-08-26T10:41:18.766Z,28.54
2022-08-26T10:42:18.728Z,28.51
2022-08-26T10:43:18.718Z,28.54
2022-08-26T10:44:18.703Z,28.60
2022-08-26T10:45:18.706Z,28.62
2022-08-26T10:46:19.730Z,28.63
2022-08-26T10:47:18.675Z,28.63
2022-08-26T10:48:18.661Z,28.66
2022-08-26T10:49:18.671Z,28.54
2022-08-26T10:50:18.920Z,28.60
2022-08-26T10:51:18.651Z,28.66
2022-08-26T10:52:18.611Z,28.66
2022-08-26T10:53:18.603Z,28.77
2022-08-26T10:54:19.601Z,28.78
2022-08-26T10:55:18.604Z,28.88
2022-08-26T10:56:19.370Z,28.95
2022-08-26T10:57:18.586Z,28.96
2022-08-26T10:58:26.679Z,29.01
2022-08-26T10:59:19.556Z,29.04
2022-08-26T11:00:18.563Z,29.16
2022-08-26T11:01:22.864Z,29.22
2022-08-26T11:02:22.816Z,29.26
2022-08-26T11:03:22.056Z,29.31
2022-08-26T11:04:18.592Z,29.37
2022-08-26T11:05:18.474Z,29.41
2022-08-26T11:06:18.492Z,29.43
2022-08-26T11:07:18.462Z,29.43
2022-08-26T11:08:18.456Z,29.44
2022-08-26T11:09:18.439Z,29.38
2022-08-26T11:10:19.435Z,29.38
2022-08-26T11:11:18.436Z,29.43
2022-08-26T11:12:18.401Z,29.50
2022-08-26T11:13:18.388Z,29.59
2022-08-26T11:14:18.408Z,29.60
2022-08-26T11:15:19.400Z,29.65
2022-08-26T11:16:20.382Z,29.65
2022-08-26T11:17:18.341Z,29.60
2022-08-26T11:18:18.352Z,29.65
2022-08-26T11:19:18.329Z,29.57
2022-08-26T11:20:19.342Z,29.59
2022-08-26T11:21:18.305Z,29.60
2022-08-26T11:22:19.314Z,29.63
2022-08-26T11:23:18.303Z,29.60
2022-08-26T11:24:18.294Z,29.60
2022-08-26T11:25:18.460Z,29.62
2022-08-26T11:26:35.791Z,29.70
2022-08-26T11:27:19.265Z,29.70
2022-08-26T11:28:18.241Z,29.63
2022-08-26T11:29:18.221Z,29.56
2022-08-26T11:30:18.490Z,29.52
2022-08-26T11:31:18.278Z,29.52
2022-08-26T11:32:18.189Z,29.52
2022-08-26T11:33:18.193Z,29.55
2022-08-26T11:34:18.206Z,29.62
2022-08-26T11:35:18.152Z,29.65
2022-08-26T11:36:18.174Z,29.71
2022-08-26T11:37:18.143Z,29.71
2022-08-26T11:38:18.321Z,29.74
2022-08-26T11:39:18.142Z,29.74
2022-08-26T11:40:18.142Z,29.77
2022-08-26T11:41:18.107Z,29.82
2022-08-26T11:42:20.254Z,29.82
2022-08-26T11:43:18.111Z,29.81
2022-08-26T11:44:18.073Z,29.86
2022-08-26T11:45:18.091Z,29.79
2022-08-26T11:46:18.112Z,29.62
2022-08-26T11:47:18.038Z,29.49
2022-08-26T11:48:18.047Z,29.49
2022-08-26T11:49:18.025Z,29.49
2022-08-26T11:50:18.022Z,29.60
2022-08-26T11:51:18.040Z,29.74
2022-08-26T11:52:18.018Z,29.81
2022-08-26T11:53:17.985Z,29.87
2022-08-26T11:54:17.980Z,29.86
2022-08-26T11:55:19.221Z,29.86
2022-08-26T11:56:18.897Z,29.86
2022-08-26T11:57:18.065Z,29.87
2022-08-26T11:58:17.948Z,29.87
2022-08-26T11:59:17.913Z,29.79
2022-08-26T12:00:22.227Z,29.77
2022-08-26T12:01:17.922Z,29.71
2022-08-26T12:02:18.216Z,29.74
2022-08-26T12:03:17.946Z,29.78
2022-08-26T12:04:17.985Z,29.81
2022-08-26T12:05:17.881Z,29.77
2022-08-26T12:06:17.901Z,29.74
2022-08-26T12:07:18.503Z,29.70
2022-08-26T12:08:18.824Z,29.70
2022-08-26T12:09:17.823Z,29.78
2022-08-26T12:10:17.800Z,29.77
2022-08-26T12:11:17.777Z,29.84
2022-08-26T12:12:17.788Z,29.92
2022-08-26T12:13:17.784Z,29.96
2022-08-26T12:14:17.764Z,29.97
2022-08-26T12:15:17.759Z,30.03
2022-08-26T12:16:17.796Z,29.99
2022-08-26T12:17:17.726Z,29.93
2022-08-26T12:18:17.732Z,29.94
2022-08-26T12:19:17.739Z,29.94
2022-08-26T12:20:17.685Z,29.97
2022-08-26T12:21:17.686Z,30.00
2022-08-26T12:22:17.682Z,30.00
2022-08-26T12:23:17.676Z,30.00
2022-08-26T12:24:17.668Z,29.97
2022-08-26T12:25:17.635Z,30.02
2022-08-26T12:26:17.653Z,30.03
2022-08-26T12:27:17.616Z,29.99
2022-08-26T12:28:17.637Z,29.96
2022-08-26T12:29:26.523Z,29.93
2022-08-26T12:30:19.280Z,29.87
2022-08-26T12:31:17.651Z,29.72
2022-08-26T12:32:17.570Z,29.55
2022-08-26T12:33:22.643Z,29.56
2022-08-26T12:34:18.735Z,29.53
2022-08-26T12:35:17.534Z,29.57
2022-08-26T12:36:17.528Z,29.49
2022-08-26T12:37:18.810Z,29.53
2022-08-26T12:38:17.522Z,29.45
2022-08-26T12:39:17.491Z,29.47
2022-08-26T12:40:17.514Z,29.43
2022-08-26T12:41:19.457Z,29.43
2022-08-26T12:42:17.458Z,29.47
2022-08-26T12:43:17.458Z,29.45
2022-08-26T12:44:17.449Z,29.44
2022-08-26T12:45:17.429Z,29.35
2022-08-26T12:46:17.425Z,29.33
2022-08-26T12:47:20.431Z,29.33
2022-08-26T12:48:18.406Z,29.26
2022-08-26T12:49:18.395Z,29.29
2022-08-26T12:50:17.377Z,29.37
2022-08-26T12:51:17.379Z,29.40
2022-08-26T12:52:17.355Z,29.33
2022-08-26T12:53:17.341Z,29.28